createdAt,value
2018-09-05T00:01:11.468Z,17.35
2018-09-05T00:03:46.073Z,17.39
2018-09-05T00:06:20.748Z,17.39
2018-09-05T00:08:55.360Z,17.39
2018-09-05T00:11:29.911Z,17.39
2018-09-05T00:14:04.492Z,17.39
2018-09-05T00:16:38.956Z,17.39
2018-09-05T00:19:13.550Z,17.41
2018-09-05T00:21:48.386Z,17.44
2018-09-05T00:24:23.008Z,17.47
2018-09-05T00:26:58.029Z,17.50
2018-09-05T00:29:32.489Z,17.50
2018-09-05T00:32:07.272Z,17.54
2018-09-05T00:34:41.920Z,17.56
2018-09-05T00:37:16.560Z,17.57
2018-09-05T00:39:51.309Z,17.57
2018-09-05T00:42:25.990Z,17.60
2018-09-05T00:45:00.640Z,17.62
2018-09-05T00:47:35.292Z,17.62
2018-09-05T00:50:10.152Z,17.64
2018-09-05T00:52:44.928Z,17.63
2018-09-05T00:55:19.547Z,17.65
2018-09-05T00:57:54.224Z,17.65
2018-09-05T01:00:28.817Z,17.67
2018-09-05T01:03:03.389Z,17.66
2018-09-05T01:05:38.096Z,17.64
2018-09-05T01:08:12.643Z,17.63
2018-09-05T01:10:47.259Z,17.68
2018-09-05T01:13:21.911Z,17.72
2018-09-05T01:15:56.532Z,17.78
2018-09-05T01:18:31.073Z,17.93
2018-09-05T01:21:06.121Z,18.10
2018-09-05T01:23:40.562Z,18.20
2018-09-05T01:26:15.256Z,18.21
2018-09-05T01:28:49.892Z,18.26
2018-09-05T01:31:24.509Z,18.21
2018-09-05T01:33:59.573Z,18.08
2018-09-05T01:36:34.098Z,17.95
2018-09-05T01:39:08.724Z,17.88
2018-09-05T01:41:43.282Z,17.83
2018-09-05T01:44:17.817Z,17.77
2018-09-05T01:46:52.549Z,17.74
2018-09-05T01:49:26.992Z,17.70
2018-09-05T01:52:01.908Z,17.67
2018-09-05T01:54:36.429Z,17.62
2018-09-05T01:57:11.257Z,17.56
2018-09-05T01:59:45.816Z,17.53
2018-09-05T02:02:20.349Z,17.53
2018-09-05T02:04:55.988Z,17.54
2018-09-05T02:07:30.424Z,17.63
2018-09-05T02:10:05.368Z,17.69
2018-09-05T02:12:40.024Z,17.70
2018-09-05T02:15:14.573Z,17.72
2018-09-05T02:17:49.084Z,17.83
2018-09-05T02:20:24.139Z,17.82
2018-09-05T02:22:58.769Z,17.84
2018-09-05T02:25:33.356Z,17.81
2018-09-05T02:28:08.240Z,17.76
2018-09-05T02:30:42.981Z,17.76
2018-09-05T02:33:17.459Z,17.79
2018-09-05T02:35:52.130Z,17.85
2018-09-05T02:38:26.788Z,17.85
2018-09-05T02:41:01.389Z,17.80
2018-09-05T02:43:41.262Z,17.77
2018-09-05T02:46:15.902Z,17.69
2018-09-05T02:48:50.465Z,17.62
2018-09-05T02:51:25.256Z,17.60
2018-09-05T02:54:01.975Z,17.56
2018-09-05T02:56:36.873Z,17.46
2018-09-05T03:02:16.004Z,17.46
2018-09-05T03:07:54.243Z,17.46
2018-09-05T03:10:28.764Z,17.48
2018-09-05T03:13:03.337Z,17.51
2018-09-05T03:15:38.064Z,17.54
2018-09-05T03:18:12.876Z,17.53
2018-09-05T03:20:47.411Z,17.62
2018-09-05T03:23:22.061Z,17.76
2018-09-05T03:26:29.373Z,17.78
2018-09-05T03:29:03.871Z,17.67
2018-09-05T03:31:38.259Z,17.61
2018-09-05T03:34:21.304Z,17.62
2018-09-05T03:36:55.987Z,17.60
2018-09-05T03:39:30.806Z,17.70
2018-09-05T03:42:08.585Z,17.80
2018-09-05T03:44:42.976Z,17.86
2018-09-05T03:47:17.664Z,17.85
2018-09-05T03:49:52.148Z,17.85
2018-09-05T03:52:26.553Z,17.82
2018-09-05T03:55:00.995Z,17.77
2018-09-05T03:57:35.390Z,17.85
2018-09-05T04:00:09.923Z,17.80
2018-09-05T04:02:44.224Z,17.73
2018-09-05T04:05:18.556Z,17.70
2018-09-05T04:07:52.904Z,17.71
2018-09-05T04:10:27.291Z,17.73
2018-09-05T04:13:01.711Z,17.68
2018-09-05T04:15:36.181Z,17.63
2018-09-05T04:18:10.644Z,17.62
2018-09-05T04:20:44.900Z,17.66
2018-09-05T04:23:19.189Z,17.70
2018-09-05T04:25:53.616Z,17.76
2018-09-05T04:28:28.007Z,17.72
2018-09-05T04:31:02.428Z,17.74
2018-09-05T04:33:36.804Z,17.76
2018-09-05T04:36:13.259Z,17.79
2018-09-05T04:38:47.752Z,17.84
2018-09-05T04:41:22.164Z,17.92
2018-09-05T04:46:56.673Z,17.95
2018-09-05T04:49:30.888Z,17.88
2018-09-05T04:52:05.124Z,17.86
2018-09-05T04:54:39.545Z,17.85
2018-09-05T04:57:13.916Z,17.89
2018-09-05T04:59:57.844Z,17.97
2018-09-05T05:02:38.655Z,18.05
2018-09-05T05:05:12.896Z,18.11
2018-09-05T05:07:47.310Z,18.15
2018-09-05T05:10:21.803Z,18.20
2018-09-05T05:12:56.296Z,18.20
2018-09-05T05:15:30.715Z,18.25
2018-09-05T05:18:05.113Z,18.30
2018-09-05T05:20:39.472Z,18.33
2018-09-05T05:23:14.035Z,18.39
2018-09-05T05:25:48.268Z,18.43
2018-09-05T05:28:22.667Z,18.52
2018-09-05T05:30:57.085Z,18.56
2018-09-05T05:33:31.440Z,18.54
2018-09-05T05:36:06.090Z,18.69
2018-09-05T05:38:40.779Z,18.79
2018-09-05T05:41:15.356Z,18.88
2018-09-05T05:43:49.851Z,19.01
2018-09-05T05:46:24.075Z,19.18
2018-09-05T05:48:58.536Z,19.37
2018-09-05T05:51:32.940Z,19.48
2018-09-05T05:54:07.813Z,19.68
2018-09-05T05:56:42.048Z,19.98
2018-09-05T05:59:16.287Z,21.06
2018-09-05T06:01:50.599Z,22.14
2018-09-05T06:04:24.952Z,22.21
2018-09-05T06:06:59.419Z,21.67
2018-09-05T06:09:34.103Z,21.28
2018-09-05T06:12:08.507Z,21.26
2018-09-05T06:14:42.891Z,21.23
2018-09-05T06:17:17.334Z,21.31
2018-09-05T06:19:52.020Z,21.40
2018-09-05T06:22:26.656Z,21.66
2018-09-05T06:25:05.019Z,21.58
2018-09-05T06:27:46.956Z,21.76
2018-09-05T06:33:20.588Z,22.82
2018-09-05T06:35:54.931Z,23.63
2018-09-05T06:38:29.332Z,25.56
2018-09-05T06:41:03.648Z,28.08
2018-09-05T06:43:38.043Z,29.22
2018-09-05T06:46:12.439Z,29.33
2018-09-05T06:48:46.658Z,30.12
2018-09-05T06:51:21.044Z,30.69
2018-09-05T06:53:56.055Z,32.20
2018-09-05T06:56:30.547Z,32.04
2018-09-05T06:59:04.900Z,32.67
2018-09-05T07:01:39.283Z,32.45
2018-09-05T07:04:14.236Z,33.53
2018-09-05T07:06:48.429Z,32.69
2018-09-05T07:09:22.841Z,33.16
2018-09-05T07:11:57.235Z,33.50
2018-09-05T07:14:31.858Z,33.09
2018-09-05T07:17:06.627Z,30.35
2018-09-05T07:19:40.845Z,28.40
2018-09-05T07:22:15.258Z,28.06
2018-09-05T07:24:49.871Z,27.13
2018-09-05T07:27:24.320Z,26.19
2018-09-05T07:29:58.811Z,26.24
2018-09-05T07:32:33.095Z,26.02
2018-09-05T07:35:07.411Z,25.88
2018-09-05T07:37:49.073Z,25.55
2018-09-05T07:40:23.440Z,25.48
2018-09-05T07:42:58.057Z,25.46
2018-09-05T07:45:32.911Z,25.36
2018-09-05T07:48:07.218Z,25.00
2018-09-05T07:50:41.510Z,25.26
2018-09-05T07:53:15.780Z,25.14
2018-09-05T07:55:50.145Z,25.18
2018-09-05T07:58:25.168Z,25.18
2018-09-05T08:00:59.469Z,25.08
2018-09-05T08:03:34.036Z,25.63
2018-09-05T08:06:08.753Z,25.44
2018-09-05T08:08:43.144Z,25.68
2018-09-05T08:11:17.772Z,25.62
2018-09-05T08:13:52.195Z,25.77
2018-09-05T08:16:26.448Z,25.78
2018-09-05T08:19:00.695Z,25.92
2018-09-05T08:21:35.040Z,25.99
2018-09-05T08:24:09.457Z,26.26
2018-09-05T08:26:44.096Z,25.29
2018-09-05T08:29:18.617Z,25.63
2018-09-05T08:31:53.057Z,26.11
2018-09-05T08:34:41.308Z,25.69
2018-09-05T08:37:15.879Z,25.88
2018-09-05T08:39:50.102Z,26.05
2018-09-05T08:42:24.671Z,26.26
2018-09-05T08:44:59.260Z,26.62
2018-09-05T08:47:33.605Z,26.89
2018-09-05T08:50:08.140Z,27.35
2018-09-05T08:52:42.495Z,26.92
2018-09-05T08:55:17.345Z,27.09
2018-09-05T08:57:51.507Z,27.17
2018-09-05T09:00:25.753Z,27.00
2018-09-05T09:03:00.451Z,27.09
2018-09-05T09:05:34.828Z,27.48
2018-09-05T09:08:09.460Z,27.11
2018-09-05T09:10:43.820Z,27.15
2018-09-05T09:13:18.276Z,27.41
2018-09-05T09:15:52.513Z,27.53
2018-09-05T09:18:26.908Z,27.44
2018-09-05T09:21:01.211Z,27.56
2018-09-05T09:23:35.631Z,27.13
2018-09-05T09:26:10.404Z,27.44
2018-09-05T09:28:44.720Z,28.45
2018-09-05T09:31:18.939Z,29.18
2018-09-05T09:33:53.255Z,28.75
2018-09-05T09:36:27.789Z,28.36
2018-09-05T09:39:02.048Z,27.95
2018-09-05T09:41:36.552Z,27.73
2018-09-05T09:44:11.874Z,27.73
2018-09-05T09:46:52.823Z,27.17
2018-09-05T09:49:27.657Z,27.40
2018-09-05T09:52:15.157Z,26.75
2018-09-05T09:54:50.964Z,27.26
2018-09-05T09:57:33.183Z,26.96
2018-09-05T10:00:08.084Z,26.87
2018-09-05T10:03:06.572Z,26.49
2018-09-05T10:05:47.020Z,27.01
2018-09-05T10:08:26.820Z,27.48
2018-09-05T10:11:05.813Z,27.80
2018-09-05T10:13:45.625Z,28.07
2018-09-05T10:16:25.550Z,28.19
2018-09-05T10:19:00.174Z,27.81
2018-09-05T10:21:34.660Z,27.98
2018-09-05T10:24:08.979Z,27.72
2018-09-05T10:26:43.844Z,27.37
2018-09-05T10:29:18.900Z,27.60
2018-09-05T10:31:53.403Z,27.52
2018-09-05T10:34:27.653Z,28.17
2018-09-05T10:37:02.555Z,28.59
2018-09-05T10:39:36.812Z,28.57
2018-09-05T10:42:11.212Z,28.37
2018-09-05T10:44:46.071Z,28.30
2018-09-05T10:47:22.107Z,28.18
2018-09-05T10:52:55.438Z,27.80
2018-09-05T10:55:29.860Z,27.93
2018-09-05T10:58:04.559Z,28.75
2018-09-05T11:00:38.899Z,29.24
2018-09-05T11:03:13.307Z,29.73
2018-09-05T11:05:47.895Z,30.41
2018-09-05T11:08:22.287Z,30.79
2018-09-05T11:10:57.036Z,30.46
2018-09-05T11:13:31.379Z,29.88
2018-09-05T11:16:05.806Z,29.04
2018-09-05T11:18:40.147Z,29.04
2018-09-05T11:21:14.411Z,28.39
2018-09-05T11:23:48.815Z,28.71
2018-09-05T11:26:23.235Z,28.58
2018-09-05T11:28:58.320Z,28.53
2018-09-05T11:31:32.464Z,28.74
2018-09-05T11:34:07.108Z,28.74
2018-09-05T11:36:41.543Z,28.94
2018-09-05T11:39:15.910Z,28.51
2018-09-05T11:41:50.479Z,29.00
2018-09-05T11:44:24.856Z,28.84
2018-09-05T11:46:59.352Z,28.66
2018-09-05T11:49:35.516Z,28.56
2018-09-05T11:52:10.380Z,28.78
2018-09-05T11:54:44.775Z,28.56
2018-09-05T11:57:19.257Z,28.09
2018-09-05T11:59:53.915Z,28.12
2018-09-05T12:02:28.307Z,27.99
2018-09-05T12:05:02.579Z,27.92
2018-09-05T12:07:36.976Z,28.09
2018-09-05T12:10:11.276Z,27.98
2018-09-05T12:12:45.627Z,28.10
2018-09-05T12:15:19.921Z,27.77
2018-09-05T12:17:54.574Z,28.18
2018-09-05T12:20:28.759Z,28.49
2018-09-05T12:23:03.203Z,28.26
2018-09-05T12:25:37.891Z,28.17
2018-09-05T12:28:12.327Z,28.30
2018-09-05T12:30:46.727Z,28.85
2018-09-05T12:33:21.107Z,28.56
2018-09-05T12:35:55.460Z,28.56
2018-09-05T12:38:31.921Z,28.86
2018-09-05T12:41:07.558Z,28.91
2018-09-05T12:43:42.129Z,29.34
2018-09-05T12:46:17.160Z,28.87
2018-09-05T12:48:57.771Z,29.04
2018-09-05T12:51:32.409Z,28.78
2018-09-05T12:54:07.541Z,28.93
2018-09-05T12:59:49.968Z,28.59
2018-09-05T13:02:24.552Z,29.09
2018-09-05T13:04:59.251Z,28.74
2018-09-05T13:07:33.889Z,28.59
2018-09-05T13:10:08.904Z,28.92
2018-09-05T13:12:45.196Z,28.80
2018-09-05T13:15:28.555Z,29.00
2018-09-05T13:18:15.116Z,28.28
2018-09-05T13:20:49.565Z,28.06
2018-09-05T13:26:35.932Z,28.02
2018-09-05T13:29:10.892Z,27.98
2018-09-05T13:31:45.670Z,28.21
2018-09-05T13:34:20.245Z,28.06
2018-09-05T13:36:54.826Z,28.52
2018-09-05T13:39:29.439Z,28.30
2018-09-05T13:42:03.946Z,28.58
2018-09-05T13:44:38.641Z,28.83
2018-09-05T13:47:13.154Z,28.64
2018-09-05T13:49:47.592Z,28.43
2018-09-05T13:52:22.027Z,28.53
2018-09-05T13:54:56.472Z,28.23
2018-09-05T13:57:31.149Z,27.90
2018-09-05T14:00:05.680Z,28.14
2018-09-05T14:02:40.090Z,28.34
2018-09-05T14:05:15.112Z,28.12
2018-09-05T14:07:49.573Z,27.56
2018-09-05T14:10:24.328Z,27.73
2018-09-05T14:12:58.789Z,27.45
2018-09-05T14:15:33.337Z,27.23
2018-09-05T14:18:07.997Z,27.32
2018-09-05T14:20:42.646Z,27.50
2018-09-05T14:23:17.248Z,27.54
2018-09-05T14:25:51.912Z,27.61
2018-09-05T14:28:26.567Z,27.44
2018-09-05T14:31:01.108Z,27.79
2018-09-05T14:33:35.540Z,27.97
2018-09-05T14:36:10.001Z,28.72
2018-09-05T14:38:45.031Z,28.99
2018-09-05T14:41:19.464Z,29.50
2018-09-05T14:43:53.901Z,30.17
2018-09-05T14:46:28.241Z,30.95
2018-09-05T14:49:02.797Z,31.55
2018-09-05T14:51:37.253Z,30.55
2018-09-05T14:54:11.727Z,31.35
2018-09-05T14:56:46.384Z,31.36
2018-09-05T14:59:21.216Z,31.91
2018-09-05T15:01:55.581Z,32.31
2018-09-05T15:04:30.179Z,32.62
2018-09-05T15:07:04.598Z,32.34
2018-09-05T15:09:39.288Z,32.09
2018-09-05T15:12:13.836Z,31.94
2018-09-05T15:14:48.320Z,31.38
2018-09-05T15:17:22.765Z,31.11
2018-09-05T15:19:57.436Z,30.61
2018-09-05T15:22:31.957Z,30.19
2018-09-05T15:25:06.813Z,29.40
2018-09-05T15:27:41.589Z,29.54
2018-09-05T15:30:16.333Z,29.67
2018-09-05T15:32:50.791Z,29.34
2018-09-05T15:35:25.440Z,29.73
2018-09-05T15:38:00.009Z,29.80
2018-09-05T15:40:34.599Z,29.63
2018-09-05T15:43:08.996Z,29.67
2018-09-05T15:45:43.494Z,28.99
2018-09-05T15:48:17.947Z,29.22
2018-09-05T15:50:52.384Z,29.15
2018-09-05T15:53:27.228Z,29.36
2018-09-05T15:56:01.677Z,28.96
2018-09-05T15:58:36.593Z,29.26
2018-09-05T16:01:15.579Z,29.56
2018-09-05T16:03:54.273Z,28.80
2018-09-05T16:06:29.240Z,28.50
2018-09-05T16:09:04.249Z,27.70
2018-09-05T16:11:38.900Z,27.23
2018-09-05T16:14:14.256Z,26.89
2018-09-05T16:16:48.915Z,26.65
2018-09-05T16:19:23.541Z,26.30
2018-09-05T16:21:58.183Z,26.10
2018-09-05T16:24:32.730Z,25.95
2018-09-05T16:27:07.841Z,25.81
2018-09-05T16:29:42.237Z,25.75
2018-09-05T16:32:16.679Z,25.55
2018-09-05T16:34:51.029Z,25.51
2018-09-05T16:37:25.620Z,25.42
2018-09-05T16:40:00.266Z,25.34
2018-09-05T16:42:34.772Z,25.30
2018-09-05T16:45:09.508Z,25.15
2018-09-05T16:47:44.308Z,25.14
2018-09-05T16:50:18.964Z,25.05
2018-09-05T16:52:53.702Z,25.02
2018-09-05T16:55:28.241Z,24.94
2018-09-05T16:58:02.733Z,24.90
2018-09-05T17:00:37.985Z,24.86
2018-09-05T17:03:12.697Z,24.74
2018-09-05T17:05:47.268Z,24.69
2018-09-05T17:08:21.668Z,24.60
2018-09-05T17:10:56.327Z,24.49
2018-09-05T17:13:30.989Z,24.55
2018-09-05T17:16:06.528Z,24.50
2018-09-05T17:18:41.317Z,24.52
2018-09-05T17:21:16.104Z,24.45
2018-09-05T17:24:02.661Z,24.43
2018-09-05T17:26:37.649Z,24.43
2018-09-05T17:29:12.376Z,24.33
2018-09-05T17:31:47.001Z,24.28
2018-09-05T17:34:21.704Z,24.14
2018-09-05T17:36:56.317Z,24.13
2018-09-05T17:39:31.045Z,24.05
2018-09-05T17:42:05.776Z,23.92
2018-09-05T17:44:40.420Z,23.65
2018-09-05T17:47:15.097Z,23.53
2018-09-05T17:49:49.841Z,23.47
2018-09-05T17:52:24.344Z,23.40
2018-09-05T17:54:58.881Z,23.21
2018-09-05T17:57:33.348Z,23.09
2018-09-05T18:00:08.180Z,22.92
2018-09-05T18:02:42.721Z,22.75
2018-09-05T18:05:17.209Z,22.70
2018-09-05T18:07:51.828Z,22.65
2018-09-05T18:10:26.485Z,22.50
2018-09-05T18:13:01.297Z,22.40
2018-09-05T18:15:35.970Z,22.31
2018-09-05T18:18:10.392Z,22.27
2018-09-05T18:20:44.902Z,22.34
2018-09-05T18:23:19.381Z,22.22
2018-09-05T18:25:53.820Z,22.21
2018-09-05T18:28:28.446Z,22.09
2018-09-05T18:31:02.955Z,22.05
2018-09-05T18:33:37.717Z,22.01
2018-09-05T18:36:12.270Z,21.88
2018-09-05T18:38:46.909Z,21.81
2018-09-05T18:41:21.537Z,21.94
2018-09-05T18:43:56.076Z,22.04
2018-09-05T18:46:30.960Z,22.04
2018-09-05T18:49:05.546Z,22.07
2018-09-05T18:51:40.036Z,22.23
2018-09-05T18:54:14.507Z,22.26
2018-09-05T18:56:48.965Z,22.31
2018-09-05T18:59:23.442Z,22.38
2018-09-05T19:01:58.147Z,22.46
2018-09-05T19:04:32.676Z,22.41
2018-09-05T19:07:07.335Z,22.46
2018-09-05T19:09:41.985Z,22.44
2018-09-05T19:12:16.592Z,22.39
2018-09-05T19:14:51.038Z,22.27
2018-09-05T19:17:25.670Z,22.24
2018-09-05T19:20:00.252Z,22.23
2018-09-05T19:22:34.830Z,22.26
2018-09-05T19:25:09.501Z,22.29
2018-09-05T19:27:44.051Z,22.26
2018-09-05T19:30:19.145Z,22.23
2018-09-05T19:32:53.521Z,22.13
2018-09-05T19:35:28.250Z,22.12
2018-09-05T19:38:02.701Z,22.06
2018-09-05T19:40:37.456Z,21.90
2018-09-05T19:43:12.108Z,21.77
2018-09-05T19:45:46.705Z,21.64
2018-09-05T19:48:21.188Z,21.53
2018-09-05T19:50:55.801Z,21.41
2018-09-05T19:53:30.417Z,21.33
2018-09-05T19:56:04.849Z,21.30
2018-09-05T19:58:43.577Z,21.22
2018-09-05T20:01:34.029Z,21.18
2018-09-05T20:04:08.664Z,21.17
2018-09-05T20:06:43.772Z,21.14
2018-09-05T20:09:18.373Z,21.17
2018-09-05T20:11:52.920Z,21.23
2018-09-05T20:14:27.905Z,21.20
2018-09-05T20:17:02.477Z,21.16
2018-09-05T20:19:37.163Z,21.06
2018-09-05T20:22:12.260Z,20.91
2018-09-05T20:24:46.908Z,20.85
2018-09-05T20:27:21.498Z,20.78
2018-09-05T20:29:56.640Z,20.70
2018-09-05T20:32:31.013Z,20.75
2018-09-05T20:35:05.641Z,20.75
2018-09-05T20:37:40.169Z,20.87
2018-09-05T20:40:14.720Z,20.88
2018-09-05T20:42:49.312Z,20.92
2018-09-05T20:45:23.853Z,21.01
2018-09-05T20:47:58.745Z,20.96
2018-09-05T20:50:33.329Z,21.12
2018-09-05T20:53:08.271Z,21.20
2018-09-05T20:55:42.920Z,21.25
2018-09-05T20:58:18.239Z,21.25
2018-09-05T21:00:52.729Z,21.31
2018-09-05T21:03:27.361Z,21.39
2018-09-05T21:06:24.441Z,21.39
2018-09-05T21:09:00.496Z,21.47
2018-09-05T21:11:35.090Z,21.47
2018-09-05T21:14:09.853Z,21.47
2018-09-05T21:16:44.566Z,21.47
2018-09-05T21:19:19.108Z,21.47
2018-09-05T21:21:54.045Z,21.51
2018-09-05T21:24:28.549Z,21.51
2018-09-05T21:27:03.073Z,21.54
2018-09-05T21:29:38.035Z,21.56
2018-09-05T21:32:12.604Z,21.55
2018-09-05T21:34:47.188Z,21.50
2018-09-05T21:37:21.720Z,21.50
2018-09-05T21:39:56.320Z,21.50
2018-09-05T21:42:30.902Z,21.51
2018-09-05T21:45:05.953Z,21.56
2018-09-05T21:47:40.513Z,21.53
2018-09-05T21:50:15.129Z,21.50
2018-09-05T21:52:50.347Z,21.43
2018-09-05T21:55:24.869Z,21.38
2018-09-05T21:58:00.050Z,21.41
2018-09-05T22:00:34.645Z,21.37
2018-09-05T22:03:09.253Z,21.33
2018-09-05T22:05:43.818Z,21.36
2018-09-05T22:08:18.264Z,21.46
2018-09-05T22:10:52.936Z,21.41
2018-09-05T22:13:27.511Z,21.39
2018-09-05T22:16:02.161Z,21.35
2018-09-05T22:18:36.898Z,21.41
2018-09-05T22:21:11.437Z,21.44
2018-09-05T22:23:46.384Z,21.37
2018-09-05T22:26:21.242Z,21.36
2018-09-05T22:28:55.684Z,21.40
2018-09-05T22:31:30.253Z,21.37
2018-09-05T22:34:04.812Z,21.27
2018-09-05T22:36:39.397Z,21.23
2018-09-05T22:39:13.880Z,21.23
2018-09-05T22:41:48.293Z,21.23
2018-09-05T22:44:34.176Z,21.05
2018-09-05T22:47:19.976Z,21.03
2018-09-05T22:50:11.210Z,21.01
2018-09-05T22:53:04.790Z,20.92
2018-09-05T22:55:55.217Z,20.78
2018-09-05T22:58:55.669Z,20.71
2018-09-05T23:02:16.393Z,20.61
2018-09-05T23:05:59.689Z,20.46
2018-09-05T23:08:38.475Z,20.43
2018-09-05T23:11:24.374Z,20.26
2018-09-05T23:15:11.152Z,20.26
2018-09-05T23:20:14.777Z,20.14
2018-09-05T23:23:00.694Z,20.03
2018-09-05T23:25:35.141Z,20.01
2018-09-05T23:28:09.645Z,19.88
2018-09-05T23:30:44.297Z,19.85
2018-09-05T23:33:18.842Z,19.91
2018-09-05T23:35:53.738Z,19.91
2018-09-05T23:38:28.728Z,19.91
2018-09-05T23:41:03.321Z,19.81
2018-09-05T23:43:37.778Z,19.75
2018-09-05T23:46:12.439Z,19.73
2018-09-05T23:48:47.034Z,19.73
2018-09-05T23:51:21.520Z,19.70
2018-09-05T23:53:56.367Z,19.69
2018-09-05T23:56:30.950Z,19.65
2018-09-05T23:59:06.486Z,19.67
